Time;durP1;ratioP1;P1;durP2;ratioP2;P2;SDS_P1;SDS_P2;PMS_P1;PMS_P2;Temp;Humidity;BMP_temperature;BMP_pressure;BME280_temperature;BME280_humidity;BME280_pressure;Samples;Min_cycle;Max_cycle;Signal;HPM_P1;HPM_P2
2023/07/22 00:00:34;;;;;;;26.60;12.10;;;;;;;19.33;65.43;99401.69;79684;1294;3013653;-66
2023/07/22 00:03:01;;;;;;;33.60;12.80;;;;;;;19.34;65.11;99402.06;79642;1298;3012756;-67
2023/07/22 00:05:29;;;;;;;25.70;11.00;;;;;;;19.38;64.73;99400.60;78588;1298;3028745;-66
2023/07/22 00:07:55;;;;;;;40.80;22.40;;;;;;;19.34;64.96;99404.88;79728;1294;3019297;-64
2023/07/22 00:10:22;;;;;;;45.30;23.80;;;;;;;19.32;65.03;99406.00;79540;1292;3012477;-67
2023/07/22 00:12:50;;;;;;;48.40;26.00;;;;;;;19.35;65.21;99400.54;78538;1298;3027870;-65
2023/07/22 00:15:16;;;;;;;41.80;21.50;;;;;;;19.32;65.37;99390.38;79737;1297;3013139;-65
2023/07/22 00:17:44;;;;;;;35.10;18.00;;;;;;;19.29;65.68;99391.00;79635;1296;3011778;-64
2023/07/22 00:20:13;;;;;;;42.60;19.00;;;;;;;19.25;65.95;99387.31;78450;1295;3053174;-65
2023/07/22 00:22:40;;;;;;;42.80;18.60;;;;;;;19.22;65.77;99387.28;79672;1297;3013784;-65
2023/07/22 00:25:10;;;;;;;55.20;23.30;;;;;;;19.26;65.67;99392.69;79683;1293;3011821;-65
2023/07/22 00:27:39;;;;;;;55.60;23.80;;;;;;;19.26;65.91;99399.95;78479;1293;3049043;-64
2023/07/22 00:30:06;;;;;;;52.70;23.60;;;;;;;19.25;65.73;99405.73;79535;1296;3012818;-63
2023/07/22 00:32:36;;;;;;;46.40;18.60;;;;;;;19.25;65.72;99403.27;79624;1296;3011492;-65
2023/07/22 00:35:05;;;;;;;49.10;20.40;;;;;;;19.25;65.70;99399.54;78553;1298;3052910;-64
2023/07/22 00:37:32;;;;;;;56.30;24.80;;;;;;;19.25;65.49;99401.08;79560;1298;3013195;-65
2023/07/22 00:40:01;;;;;;;53.50;22.90;;;;;;;19.25;65.60;99408.43;79473;1295;3011729;-64
2023/07/22 00:42:29;;;;;;;51.80;21.90;;;;;;;19.26;65.59;99414.20;78079;1300;3048629;-63
2023/07/22 00:44:55;;;;;;;42.00;19.70;;;;;;;19.24;65.60;99419.36;79440;1298;3018600;-62
2023/07/22 00:47:22;;;;;;;61.70;25.30;;;;;;;19.23;65.44;99421.39;79452;1298;3011896;-64
2023/07/22 00:49:50;;;;;;;46.20;21.40;;;;;;;19.22;65.51;99417.39;78257;1298;3028155;-62
2023/07/22 00:52:17;;;;;;;38.50;19.20;;;;;;;19.19;65.99;99411.16;79242;1300;3013959;-64
2023/07/22 00:54:44;;;;;;;44.80;21.60;;;;;;;19.16;65.60;99406.13;79233;1296;3013151;-65
2023/07/22 00:57:13;;;;;;;53.80;26.10;;;;;;;19.16;65.47;99400.32;78043;1300;3050030;-64
2023/07/22 00:59:40;;;;;;;52.70;22.60;;;;;;;19.17;65.62;99404.11;79282;1300;3013527;-65
2023/07/22 01:02:07;;;;;;;50.10;22.70;;;;;;;19.17;65.54;99404.80;79503;1294;3011785;-63
2023/07/22 01:04:35;;;;;;;55.60;24.70;;;;;;;19.12;65.61;99406.48;78160;1301;3026089;-62
2023/07/22 01:07:09;;;;;;;54.20;22.60;;;;;;;19.08;65.87;99413.23;79235;1301;3018672;-63
2023/07/22 01:09:38;;;;;;;46.80;20.80;;;;;;;19.12;65.47;99416.30;78153;1298;3057453;-63
2023/07/22 01:12:08;;;;;;;69.70;28.50;;;;;;;19.08;65.90;99416.80;79489;1296;3014786;-63
2023/07/22 01:14:37;;;;;;;91.40;35.40;;;;;;;19.02;66.24;99412.75;78325;1298;3051902;-64
2023/07/22 01:17:05;;;;;;;84.30;31.20;;;;;;;18.98;66.56;99411.20;79481;1298;3013716;-63
2023/07/22 01:19:33;;;;;;;82.90;30.60;;;;;;;18.95;66.23;99406.50;79538;1298;3011768;-63
2023/07/22 01:22:07;;;;;;;70.20;26.80;;;;;;;18.97;66.66;99401.42;78133;1299;3052307;-63
2023/07/22 01:24:34;;;;;;;56.30;22.10;;;;;;;18.97;66.19;99402.45;79585;1298;3011453;-62
2023/07/22 01:27:04;;;;;;;52.20;20.50;;;;;;;18.96;66.10;99400.02;78245;1298;3048720;-64
2023/07/22 01:29:30;;;;;;;43.20;20.00;;;;;;;18.96;66.01;99402.52;79440;1300;3015112;-62
2023/07/22 01:31:57;;;;;;;46.10;18.30;;;;;;;18.96;65.73;99402.71;79341;1294;3011835;-63
2023/07/22 01:34:25;;;;;;;29.80;13.60;;;;;;;18.95;65.64;99406.13;78243;1293;3052971;-62
2023/07/22 01:36:52;;;;;;;33.80;13.90;;;;;;;19.00;65.40;99400.70;79276;1301;3019228;-63
2023/07/22 01:39:19;;;;;;;37.60;15.40;;;;;;;19.05;65.34;99402.05;79416;1294;3013025;-64
2023/07/22 01:41:47;;;;;;;39.00;15.60;;;;;;;19.10;65.03;99395.71;78120;1300;3049567;-63
2023/07/22 01:44:14;;;;;;;33.60;15.60;;;;;;;19.12;65.19;99391.91;79364;1295;3013379;-65
2023/07/22 01:46:41;;;;;;;45.30;17.90;;;;;;;19.12;65.46;99391.25;79504;1295;3011619;-64
2023/07/22 01:49:12;;;;;;;47.00;19.70;;;;;;;19.09;66.01;99392.77;78271;1298;3053713;-63
2023/07/22 01:51:42;;;;;;;52.50;20.80;;;;;;;19.02;67.02;99389.71;79483;1296;3011819;-63
2023/07/22 01:54:11;;;;;;;41.00;19.00;;;;;;;18.98;67.31;99397.76;78237;1298;3052261;-63
2023/07/22 01:56:39;;;;;;;41.40;15.60;;;;;;;18.94;68.05;99403.45;79266;1295;3014293;-64
2023/07/22 01:59:05;;;;;;;39.80;16.90;;;;;;;19.46;67.55;99407.26;79231;1295;3013465;-63
2023/07/22 02:01:33;;;;;;;33.40;14.00;;;;;;;20.09;66.01;99408.15;78272;1299;3050619;-64
2023/07/22 02:04:00;;;;;;;26.10;10.20;;;;;;;20.25;63.69;99414.20;79498;1298;3013133;-63
2023/07/22 02:06:27;;;;;;;22.90;10.00;;;;;;;20.18;62.35;99418.24;79505;1295;3011917;-64
2023/07/22 02:08:55;;;;;;;20.20;8.70;;;;;;;20.05;62.36;99419.77;78269;1300;3026441;-65
2023/07/22 02:11:22;;;;;;;24.30;10.90;;;;;;;19.96;62.69;99431.12;79522;1295;3014643;-63
2023/07/22 02:13:50;;;;;;;35.30;15.20;;;;;;;19.91;63.07;99439.58;79520;1296;3011606;-64
2023/07/22 02:16:19;;;;;;;20.70;9.60;;;;;;;19.85;62.99;99441.10;78362;1294;3050927;-62
2023/07/22 02:18:47;;;;;;;26.10;12.40;;;;;;;19.78;62.92;99440.51;79523;1295;3018658;-62
2023/07/22 02:21:14;;;;;;;35.70;14.00;;;;;;;19.73;63.09;99439.42;79536;1296;3013670;-62
2023/07/22 02:23:42;;;;;;;23.20;9.70;;;;;;;19.70;63.19;99448.06;78237;1298;3051632;-63
2023/07/22 02:26:09;;;;;;;35.70;14.00;;;;;;;19.67;63.94;99447.34;79344;1299;3013938;-64
2023/07/22 02:28:36;;;;;;;38.90;16.30;;;;;;;19.60;63.98;99449.04;79260;1296;3013017;-63
2023/07/22 02:31:06;;;;;;;37.80;16.10;;;;;;;19.53;63.86;99446.88;78426;1298;3050295;-62
2023/07/22 02:33:34;;;;;;;34.50;15.00;;;;;;;19.49;64.10;99442.73;79527;1298;3013006;-62
2023/07/22 02:36:02;;;;;;;37.80;13.90;;;;;;;19.43;64.32;99440.42;78392;1298;3029335;-63
2023/07/22 02:38:28;;;;;;;23.20;9.80;;;;;;;19.40;64.18;99442.65;79540;1298;3013601;-62
2023/07/22 02:41:01;;;;;;;15.90;7.10;;;;;;;19.38;63.75;99443.20;79548;1298;3011682;-63
2023/07/22 02:43:29;;;;;;;16.20;6.10;;;;;;;19.37;63.51;99429.49;78359;1298;3049669;-63
2023/07/22 02:45:56;;;;;;;16.20;5.80;;;;;;;19.37;63.56;99427.50;79621;1294;3013297;-63
2023/07/22 02:48:23;;;;;;;12.80;6.30;;;;;;;19.40;63.27;99425.94;79601;1296;3011927;-64
2023/07/22 02:50:51;;;;;;;20.00;8.60;;;;;;;19.45;63.97;99430.60;78368;1295;3025948;-63
2023/07/22 02:53:18;;;;;;;20.70;7.70;;;;;;;19.48;63.98;99435.93;79538;1297;3013709;-64
2023/07/22 02:55:46;;;;;;;22.40;9.70;;;;;;;19.49;63.75;99437.35;79472;1294;3011552;-63
2023/07/22 02:58:14;;;;;;;13.10;6.50;;;;;;;19.51;63.54;99442.10;78322;1295;3049849;-63
2023/07/22 03:00:40;;;;;;;15.20;6.60;;;;;;;19.51;63.25;99444.80;79536;1294;3013336;-64
2023/07/22 03:03:08;;;;;;;16.00;6.90;;;;;;;19.52;63.08;99454.13;79514;1298;3011637;-63
2023/07/22 03:05:36;;;;;;;13.50;6.30;;;;;;;19.53;62.93;99460.09;78107;1300;3052416;-63
2023/07/22 03:08:03;;;;;;;10.70;4.70;;;;;;;19.53;62.69;99463.92;79552;1297;3013424;-63
2023/07/22 03:10:30;;;;;;;9.20;4.30;;;;;;;19.53;61.96;99467.46;79499;1295;3011544;-64
2023/07/22 03:12:59;;;;;;;11.30;4.40;;;;;;;19.55;61.91;99467.48;78280;1297;3048857;-66
2023/07/22 03:15:26;;;;;;;9.00;4.60;;;;;;;19.60;61.80;99469.32;79569;1298;3013619;-64
2023/07/22 03:17:53;;;;;;;7.50;4.30;;;;;;;19.65;61.75;99465.52;79529;1298;3012997;-63
2023/07/22 03:20:21;;;;;;;8.80;3.90;;;;;;;19.70;61.82;99459.82;78314;1298;3052156;-61
2023/07/22 03:22:49;;;;;;;9.30;4.00;;;;;;;19.74;61.28;99460.06;79608;1294;3013397;-62
2023/07/22 03:25:16;;;;;;;12.60;4.10;;;;;;;19.79;61.22;99459.27;79310;1295;3012790;-62
2023/07/22 03:27:45;;;;;;;6.00;2.70;;;;;;;19.83;60.88;99448.41;78303;1294;3048161;-63
2023/07/22 03:30:17;;;;;;;10.10;3.10;;;;;;;19.88;60.41;99445.96;79478;1295;3013790;-61
2023/07/22 03:32:47;;;;;;;7.30;3.50;;;;;;;19.93;60.49;99440.26;78352;1298;3052804;-63
2023/07/22 03:35:14;;;;;;;12.80;6.30;;;;;;;19.99;60.67;99436.77;79677;1294;3012890;-62
2023/07/22 03:37:41;;;;;;;18.90;8.30;;;;;;;20.01;61.53;99438.29;79521;1295;3011545;-63
2023/07/22 03:40:22;;;;;;;18.00;8.80;;;;;;;20.03;62.74;99432.24;78302;1295;3055677;-65
2023/07/22 03:42:50;;;;;;;24.00;9.10;;;;;;;20.04;63.42;99429.61;78284;1297;3050479;-64
2023/07/22 03:45:18;;;;;;;21.00;9.20;;;;;;;20.06;63.54;99426.96;79554;1294;3013351;-64
2023/07/22 03:47:45;;;;;;;21.50;9.00;;;;;;;20.07;63.90;99423.66;79411;1299;3011737;-63
2023/07/22 03:50:13;;;;;;;22.90;9.50;;;;;;;20.09;64.15;99422.38;78372;1298;3052156;-63
2023/07/22 03:52:40;;;;;;;22.70;11.40;;;;;;;20.11;64.39;99425.34;79324;1300;3020560;-64
2023/07/22 03:55:07;;;;;;;27.90;11.80;;;;;;;20.14;64.68;99431.61;79556;1298;3011728;-64
2023/07/22 03:57:35;;;;;;;28.90;11.00;;;;;;;20.17;64.96;99435.10;78084;1300;3025949;-62
2023/07/22 04:00:03;;;;;;;26.60;12.70;;;;;;;20.18;65.08;99438.33;79552;1296;3013033;-62
2023/07/22 04:02:41;;;;;;;24.60;10.80;;;;;;;20.22;64.69;99438.27;78410;1298;3052461;-63
2023/07/22 04:05:08;;;;;;;24.70;10.90;;;;;;;20.25;64.11;99441.36;79313;1299;3021378;-65
2023/07/22 04:07:36;;;;;;;20.10;10.10;;;;;;;20.27;63.17;99443.30;79584;1298;3011398;-63
2023/07/22 04:10:05;;;;;;;19.50;10.00;;;;;;;20.27;63.05;99447.19;78176;1298;3055830;-63
2023/07/22 04:12:33;;;;;;;19.10;8.40;;;;;;;20.29;62.84;99446.49;79574;1295;3011953;-62
2023/07/22 04:15:07;;;;;;;16.90;7.70;;;;;;;20.31;62.20;99452.02;78275;1295;3054826;-65
2023/07/22 04:17:34;;;;;;;14.10;6.70;;;;;;;20.34;61.84;99452.95;79638;1298;3012049;-62
2023/07/22 04:20:01;;;;;;;15.80;8.20;;;;;;;20.35;62.29;99456.35;79640;1294;3011569;-62
2023/07/22 04:22:29;;;;;;;19.70;9.00;;;;;;;20.35;64.24;99457.98;78254;1295;3068707;-65
2023/07/22 04:24:59;;;;;;;24.30;10.80;;;;;;;20.34;65.08;99459.47;79616;1297;3011819;-63
2023/07/22 04:27:28;;;;;;;24.40;9.70;;;;;;;20.37;64.79;99459.02;78521;1296;3057154;-66
2023/07/22 04:29:55;;;;;;;27.10;11.50;;;;;;;20.40;64.73;99461.71;79539;1296;3019128;-63
2023/07/22 04:32:21;;;;;;;24.40;10.60;;;;;;;20.42;64.54;99458.35;79589;1295;3011735;-63
2023/07/22 04:34:49;;;;;;;20.80;10.50;;;;;;;20.46;64.39;99456.19;78254;1298;3028286;-64
2023/07/22 04:37:16;;;;;;;23.40;11.80;;;;;;;20.50;64.45;99455.60;79348;1296;3013132;-65
2023/07/22 04:39:47;;;;;;;22.90;12.30;;;;;;;20.51;64.65;99458.37;79648;1295;3011565;-64
2023/07/22 04:42:16;;;;;;;27.60;12.20;;;;;;;20.53;64.17;99455.29;78305;1295;3058052;-65
2023/07/22 04:44:44;;;;;;;23.40;11.80;;;;;;;20.55;64.24;99449.73;79815;1295;3015673;-65
2023/07/22 04:47:10;;;;;;;35.20;11.30;;;;;;;20.57;63.57;99448.11;79733;1295;3012246;-64
2023/07/22 04:49:39;;;;;;;26.60;10.30;;;;;;;20.62;63.11;99449.30;78436;1295;3052707;-67
2023/07/22 04:52:06;;;;;;;22.00;9.80;;;;;;;20.66;62.30;99443.44;79576;1298;3013065;-66
2023/07/22 04:54:33;;;;;;;20.20;8.50;;;;;;;20.71;61.78;99442.61;79679;1294;3011631;-63
2023/07/22 04:57:02;;;;;;;17.60;7.40;;;;;;;20.71;60.80;99442.01;78378;1298;3057070;-66
2023/07/22 04:59:29;;;;;;;17.80;8.10;;;;;;;20.75;60.08;99439.45;79715;1294;3013064;-66
2023/07/22 05:01:55;;;;;;;19.30;7.60;;;;;;;20.75;60.18;99442.36;79729;1296;3011856;-68
2023/07/22 05:04:24;;;;;;;15.10;7.90;;;;;;;20.84;60.40;99439.48;78451;1295;3052321;-67
2023/07/22 05:06:50;;;;;;;15.80;7.20;;;;;;;20.91;60.22;99441.63;79702;1298;3013617;-65
2023/07/22 05:09:17;;;;;;;15.80;7.10;;;;;;;21.02;60.08;99437.46;79640;1298;3012945;-65
2023/07/22 05:11:45;;;;;;;14.90;7.20;;;;;;;21.09;59.40;99442.19;78394;1298;3026242;-69
2023/07/22 05:14:13;;;;;;;12.90;6.20;;;;;;;21.15;59.77;99443.89;79886;1295;3013013;-64
2023/07/22 05:16:41;;;;;;;32.00;7.80;;;;;;;21.23;59.40;99442.86;79599;1296;3012813;-65
2023/07/22 05:19:09;;;;;;;26.60;7.10;;;;;;;21.33;58.60;99443.41;78248;1298;3052464;-65
2023/07/22 05:21:35;;;;;;;27.80;6.90;;;;;;;21.34;58.91;99441.41;79562;1298;3013582;-64
2023/07/22 05:24:02;;;;;;;18.60;7.00;;;;;;;21.45;58.67;99440.39;79480;1297;3011488;-66
2023/07/22 05:26:31;;;;;;;18.90;6.00;;;;;;;21.59;58.01;99436.25;78382;1295;3028711;-64
2023/07/22 05:28:57;;;;;;;21.00;5.60;;;;;;;21.75;57.49;99437.59;79496;1296;3011642;-69
2023/07/22 05:31:25;;;;;;;16.00;4.90;;;;;;;21.87;57.07;99434.77;79639;1298;3013056;-71
2023/07/22 05:33:53;;;;;;;12.60;4.00;;;;;;;21.93;55.38;99440.35;78434;1298;3051226;-70
2023/07/22 05:36:19;;;;;;;8.30;3.10;;;;;;;21.99;55.14;99439.06;79704;1295;3013681;-66
2023/07/22 05:38:48;;;;;;;8.50;3.50;;;;;;;22.12;53.98;99435.90;79492;1298;3011632;-67
2023/07/22 05:41:16;;;;;;;13.40;3.60;;;;;;;22.22;54.41;99426.23;78283;1295;3056784;-64
2023/07/22 05:43:43;;;;;;;5.70;2.70;;;;;;;22.30;54.10;99425.89;79388;1295;3013565;-64
2023/07/22 05:46:09;;;;;;;8.20;2.80;;;;;;;22.48;53.77;99425.14;79438;1298;3011700;-65
2023/07/22 05:48:38;;;;;;;12.80;2.80;;;;;;;22.62;53.80;99417.89;78188;1298;3026635;-65
2023/07/22 05:51:04;;;;;;;7.00;2.80;;;;;;;22.70;53.60;99408.42;79457;1295;3014436;-66
2023/07/22 05:53:33;;;;;;;6.30;2.90;;;;;;;22.76;53.94;99415.77;79373;1295;3012001;-64
2023/07/22 05:56:01;;;;;;;5.10;2.10;;;;;;;22.82;53.54;99415.15;78272;1298;3057001;-64
2023/07/22 05:58:28;;;;;;;3.50;1.90;;;;;;;22.86;52.68;99409.64;79456;1295;3013403;-64
2023/07/22 06:00:55;;;;;;;3.50;1.60;;;;;;;22.89;51.96;99407.02;79394;1296;3011683;-65
2023/07/22 06:03:23;;;;;;;4.40;1.90;;;;;;;22.91;51.43;99412.36;78358;1298;3052779;-64
2023/07/22 06:05:53;;;;;;;3.70;1.90;;;;;;;22.93;51.08;99407.40;79503;1294;3014398;-63
2023/07/22 06:08:22;;;;;;;4.00;1.80;;;;;;;22.96;50.81;99409.19;78222;1295;3051276;-66
2023/07/22 06:10:48;;;;;;;6.20;2.00;;;;;;;23.05;50.96;99410.95;79474;1295;3012888;-64
2023/07/22 06:13:15;;;;;;;3.00;1.90;;;;;;;23.19;51.39;99416.87;79389;1298;3011638;-63
2023/07/22 06:15:44;;;;;;;3.70;2.00;;;;;;;23.35;51.11;99418.45;78302;1298;3049141;-65
2023/07/22 06:18:10;;;;;;;3.00;1.80;;;;;;;23.48;50.57;99424.64;79483;1298;3012934;-65
2023/07/22 06:20:38;;;;;;;2.50;1.50;;;;;;;23.60;50.31;99420.53;79428;1295;3011497;-64
2023/07/22 06:23:06;;;;;;;4.90;2.10;;;;;;;23.68;49.74;99421.23;78263;1294;3050780;-63
2023/07/22 06:25:34;;;;;;;2.40;1.70;;;;;;;23.78;49.72;99414.31;79562;1295;3013490;-65
2023/07/22 06:28:01;;;;;;;2.20;1.70;;;;;;;23.86;48.90;99418.41;79356;1295;3011500;-62
2023/07/22 06:30:29;;;;;;;5.10;2.00;;;;;;;23.90;48.46;99420.15;78421;1294;3049415;-64
2023/07/22 06:32:56;;;;;;;6.10;1.90;;;;;;;23.94;47.35;99419.35;79455;1298;3016175;-64
2023/07/22 06:35:22;;;;;;;4.70;1.80;;;;;;;23.99;46.92;99422.32;79511;1296;3013407;-65
2023/07/22 06:37:51;;;;;;;5.30;2.20;;;;;;;23.99;45.91;99435.88;78316;1295;3027652;-62
2023/07/22 06:40:18;;;;;;;4.30;1.80;;;;;;;23.92;45.87;99445.86;79489;1295;3014559;-66
2023/07/22 06:42:44;;;;;;;7.80;2.10;;;;;;;23.85;46.18;99454.73;79524;1295;3011912;-66
2023/07/22 06:45:12;;;;;;;7.60;2.10;;;;;;;23.81;46.17;99450.98;78269;1294;3028341;-65
2023/07/22 06:47:39;;;;;;;3.90;1.70;;;;;;;23.70;46.21;99444.92;77550;1298;3015547;-62
2023/07/22 06:50:06;;;;;;;2.90;1.70;;;;;;;23.78;46.48;99438.77;79536;1298;3011647;-64
2023/07/22 06:52:34;;;;;;;5.80;1.50;;;;;;;23.83;46.55;99427.43;78332;1298;3027744;-65
2023/07/22 06:55:04;;;;;;;4.00;1.80;;;;;;;23.88;47.08;99415.19;79632;1295;3011687;-64
2023/07/22 06:57:35;;;;;;;4.30;1.80;;;;;;;23.93;47.43;99411.34;78276;1295;3050052;-64
2023/07/22 07:00:05;;;;;;;7.10;2.10;;;;;;;23.84;47.20;99415.83;79552;1295;3011803;-63
2023/07/22 07:02:41;;;;;;;5.30;2.00;;;;;;;23.78;48.14;99415.19;78168;1298;3048948;-64
2023/07/22 07:05:08;;;;;;;4.90;2.00;;;;;;;23.86;48.09;99416.27;79544;1295;3013243;-63
2023/07/22 07:07:35;;;;;;;3.50;1.90;;;;;;;23.91;47.77;99414.83;79486;1298;3011717;-65
2023/07/22 07:10:05;;;;;;;4.30;1.80;;;;;;;24.04;47.07;99418.35;78342;1298;3051417;-65
2023/07/22 07:12:32;;;;;;;4.20;2.10;;;;;;;24.10;46.32;99410.82;79652;1294;3013918;-62
2023/07/22 07:14:59;;;;;;;5.90;2.00;;;;;;;24.16;46.46;99409.39;79552;1295;3013419;-66
2023/07/22 07:17:31;;;;;;;3.30;1.70;;;;;;;24.14;46.66;99406.52;78364;1298;3050213;-64
2023/07/22 07:19:57;;;;;;;4.20;1.90;;;;;;;24.19;46.55;99402.05;79519;1298;3011879;-65
2023/07/22 07:22:24;;;;;;;4.30;2.20;;;;;;;24.23;46.98;99395.45;79517;1298;3012170;-65
2023/07/22 07:24:52;;;;;;;5.10;2.10;;;;;;;24.32;46.34;99397.82;78405;1294;3029562;-68
2023/07/22 07:27:18;;;;;;;8.10;2.30;;;;;;;24.32;45.45;99400.30;79779;1295;3015052;-69
2023/07/22 07:29:45;;;;;;;3.90;2.30;;;;;;;24.34;45.05;99392.42;79591;1298;3011867;-67
2023/07/22 07:32:13;;;;;;;5.00;2.00;;;;;;;24.43;45.46;99391.13;78394;1295;3028122;-66
2023/07/22 07:34:39;;;;;;;7.10;1.80;;;;;;;24.41;45.65;99391.38;79545;1298;3018587;-67
2023/07/22 07:37:06;;;;;;;3.30;2.00;;;;;;;24.50;45.21;99396.21;79492;1298;3011586;-65
2023/07/22 07:39:34;;;;;;;7.10;1.60;;;;;;;24.49;44.86;99395.11;78226;1296;3028210;-66
2023/07/22 07:42:00;;;;;;;5.80;2.10;;;;;;;24.68;44.64;99390.61;79725;1295;3015438;-64
2023/07/22 07:44:27;;;;;;;3.70;1.90;;;;;;;24.87;44.31;99396.42;79616;1294;3013206;-65
2023/07/22 07:46:55;;;;;;;6.60;2.20;;;;;;;25.03;43.85;99401.75;78446;1295;3025918;-67
2023/07/22 07:49:23;;;;;;;4.30;1.90;;;;;;;25.06;43.95;99402.33;79603;1295;3013512;-65
2023/07/22 07:51:50;;;;;;;3.40;2.00;;;;;;;25.16;43.00;99399.13;79543;1295;3012964;-64
2023/07/22 07:54:18;;;;;;;3.60;1.60;;;;;;;25.14;42.22;99386.58;78490;1298;3051436;-66
2023/07/22 07:56:46;;;;;;;3.40;1.60;;;;;;;25.22;42.28;99386.64;79726;1295;3011634;-63
2023/07/22 07:59:12;;;;;;;2.80;1.60;;;;;;;25.36;42.04;99391.54;79672;1298;3011751;-65
2023/07/22 08:01:43;;;;;;;4.10;1.70;;;;;;;25.40;41.85;99392.80;78243;1298;3050747;-65
2023/07/22 08:04:12;;;;;;;3.10;1.60;;;;;;;25.52;42.02;99392.29;79704;1298;3013087;-65
2023/07/22 08:06:42;;;;;;;2.80;1.70;;;;;;;25.46;40.99;99391.15;78377;1298;3027350;-65
2023/07/22 08:09:10;;;;;;;5.10;1.50;;;;;;;25.46;40.71;99390.15;79676;1295;3011618;-66
2023/07/22 08:11:39;;;;;;;1.80;1.60;;;;;;;25.49;40.37;99385.10;79116;1295;3012952;-65
2023/07/22 08:14:10;;;;;;;4.60;1.90;;;;;;;25.48;41.03;99384.84;79610;1295;3011157;-67
2023/07/22 08:16:39;;;;;;;2.40;1.60;;;;;;;25.39;40.83;99384.67;78436;1296;3048835;-66
2023/07/22 08:19:05;;;;;;;3.90;1.60;;;;;;;25.39;41.69;99389.96;79742;1295;3013203;-63
2023/07/22 08:21:32;;;;;;;3.70;2.00;;;;;;;25.45;41.86;99388.45;79612;1298;3011865;-66
2023/07/22 08:24:01;;;;;;;4.70;1.80;;;;;;;25.57;41.79;99380.50;78492;1298;3025770;-65
2023/07/22 08:26:28;;;;;;;2.80;1.60;;;;;;;25.67;42.25;99376.98;79643;1295;3011964;-67
2023/07/22 08:28:54;;;;;;;2.80;1.50;;;;;;;25.73;42.36;99368.64;79516;1295;3013933;-67
2023/07/22 08:31:22;;;;;;;2.00;1.70;;;;;;;25.73;41.69;99372.61;78223;1295;3049196;-67
2023/07/22 08:33:49;;;;;;;3.30;1.60;;;;;;;25.88;39.95;99370.70;79601;1298;3013543;-65
2023/07/22 08:36:16;;;;;;;3.10;1.40;;;;;;;25.76;40.29;99374.74;79639;1296;3011757;-66
2023/07/22 08:38:44;;;;;;;4.70;2.00;;;;;;;25.62;40.08;99375.02;78364;1298;3026956;-65
2023/07/22 08:41:14;;;;;;;3.40;1.70;;;;;;;25.93;40.00;99375.75;79672;1294;3013712;-66
2023/07/22 08:43:46;;;;;;;3.70;1.60;;;;;;;25.97;39.72;99371.31;78389;1294;3056761;-65
2023/07/22 08:46:13;;;;;;;1.80;1.40;;;;;;;26.12;39.35;99365.11;79600;1296;3014121;-64
2023/07/22 08:48:42;;;;;;;1.30;1.20;;;;;;;26.21;39.02;99366.08;79644;1295;3012788;-65
2023/07/22 08:51:12;;;;;;;6.30;2.00;;;;;;;26.25;39.14;99365.98;78349;1298;3052188;-63
2023/07/22 08:53:39;;;;;;;2.50;2.00;;;;;;;26.34;38.72;99366.85;79439;1298;3013284;-64
2023/07/22 08:56:05;;;;;;;2.10;1.70;;;;;;;26.62;38.34;99364.17;79299;1295;3011688;-65
2023/07/22 08:58:34;;;;;;;4.90;1.90;;;;;;;26.69;38.05;99365.92;78039;1295;3056244;-63
2023/07/22 20:13:02;;;;;;;3.30;2.60;;;;;;;22.47;52.08;99043.55;80018;1302;3012897;-69
2023/07/22 20:15:29;;;;;;;6.80;2.60;;;;;;;22.45;52.18;99045.01;79177;1304;3013633;-65
2023/07/22 20:17:56;;;;;;;2.80;2.50;;;;;;;22.44;52.16;99039.05;79072;1305;3011433;-66
2023/07/22 20:20:23;;;;;;;10.70;3.00;;;;;;;22.41;52.41;99038.85;77988;1301;3052632;-67
2023/07/22 20:22:50;;;;;;;3.50;2.80;;;;;;;22.31;52.62;99029.50;79327;1301;3011415;-63
2023/07/22 20:25:16;;;;;;;8.40;3.40;;;;;;;22.28;52.99;99033.48;77264;1298;5721372;-62
2023/07/22 20:27:45;;;;;;;7.30;3.20;;;;;;;22.25;53.16;99033.39;78039;1303;3027268;-64
2023/07/22 20:30:12;;;;;;;4.10;3.00;;;;;;;22.26;53.16;99029.88;79254;1298;3013088;-64
2023/07/22 20:32:38;;;;;;;7.80;3.40;;;;;;;22.20;53.14;99032.04;79307;1299;3013117;-63
2023/07/22 20:35:09;;;;;;;4.20;2.90;;;;;;;22.19;53.41;99027.19;78070;1303;3053066;-64
2023/07/22 20:37:35;;;;;;;7.40;3.40;;;;;;;22.15;53.59;99027.08;79239;1302;3011767;-65
2023/07/22 20:40:05;;;;;;;6.40;3.80;;;;;;;22.10;53.96;99026.59;78755;1298;3011985;-62
2023/07/22 20:42:32;;;;;;;6.20;3.40;;;;;;;22.03;54.27;99023.89;79283;1298;3013071;-64
2023/07/22 20:44:59;;;;;;;6.10;3.40;;;;;;;22.01;54.15;99021.09;79160;1299;3011504;-63
2023/07/22 20:47:27;;;;;;;9.80;3.50;;;;;;;21.99;54.18;99021.25;78031;1302;3049493;-65
2023/07/22 20:49:54;;;;;;;5.60;3.00;;;;;;;21.94;54.59;99020.41;79314;1304;3013055;-63
2023/07/22 20:52:21;;;;;;;5.30;2.90;;;;;;;21.94;54.40;99016.48;79262;1304;3012289;-63
2023/07/22 20:54:49;;;;;;;8.00;3.60;;;;;;;21.92;54.81;99015.90;77913;1298;3050745;-59
2023/07/22 20:57:16;;;;;;;5.40;3.00;;;;;;;21.89;54.89;99010.32;79330;1298;3012850;-62
2023/07/22 20:59:47;;;;;;;7.30;3.20;;;;;;;21.85;55.20;99010.83;79115;1301;3011973;-64
2023/07/22 21:02:15;;;;;;;4.80;3.20;;;;;;;21.84;55.31;99006.27;77934;1301;3049416;-65
2023/07/22 21:04:42;;;;;;;5.30;3.20;;;;;;;21.79;55.50;99003.08;79306;1301;3013206;-60
2023/07/22 21:07:09;;;;;;;5.20;3.10;;;;;;;21.82;55.40;99004.95;79045;1301;3013115;-65
2023/07/22 21:09:37;;;;;;;4.30;3.10;;;;;;;21.78;55.73;99000.86;77900;1298;3051756;-63
2023/07/22 21:12:04;;;;;;;4.80;2.80;;;;;;;21.74;56.03;98996.85;79190;1298;3013735;-70
2023/07/22 21:14:30;;;;;;;5.30;3.30;;;;;;;21.70;56.53;98993.23;79314;1301;3012861;-68
2023/07/22 21:16:58;;;;;;;5.00;3.30;;;;;;;21.68;56.55;98996.19;78123;1301;3028869;-68
2023/07/22 21:19:25;;;;;;;5.00;3.50;;;;;;;21.67;56.74;98999.87;79307;1301;3013428;-68
2023/07/22 21:21:51;;;;;;;6.90;3.50;;;;;;;21.62;57.05;99004.50;79304;1301;3011488;-68
2023/07/22 21:24:19;;;;;;;5.80;2.80;;;;;;;21.61;56.88;99009.02;77983;1297;3026598;-67
2023/07/22 21:26:45;;;;;;;5.90;3.20;;;;;;;21.61;57.06;99011.02;79339;1299;3013748;-67
2023/07/22 21:29:12;;;;;;;6.40;3.70;;;;;;;21.59;57.19;99005.15;79196;1301;3012373;-72
2023/07/22 21:31:40;;;;;;;5.30;3.20;;;;;;;21.57;57.12;99003.23;77993;1301;3028453;-67
2023/07/22 21:34:06;;;;;;;6.60;3.40;;;;;;;21.55;57.45;99004.70;79362;1301;3013378;-71
2023/07/22 21:36:33;;;;;;;4.90;3.30;;;;;;;21.55;57.34;99000.80;79226;1301;3011699;-71
2023/07/22 21:39:00;;;;;;;7.40;3.00;;;;;;;21.54;57.65;99006.25;78328;1297;3028068;-70
2023/07/22 21:41:27;;;;;;;5.10;2.90;;;;;;;21.52;57.76;99003.66;79431;1301;3018500;-65
2023/07/22 21:43:53;;;;;;;5.90;3.70;;;;;;;21.50;57.84;98999.25;79320;1298;3011816;-66
2023/07/22 21:46:21;;;;;;;5.00;3.30;;;;;;;21.50;57.58;98994.96;77973;1301;3027926;-72
2023/07/22 21:48:48;;;;;;;4.30;3.20;;;;;;;21.46;57.91;98998.41;79425;1298;3021369;-70
2023/07/22 21:51:14;;;;;;;4.30;3.20;;;;;;;21.45;57.75;98997.46;79324;1301;3011663;-66
2023/07/22 21:53:42;;;;;;;3.90;3.10;;;;;;;21.47;57.92;98994.77;78188;1298;3026341;-74
2023/07/22 21:56:09;;;;;;;10.10;3.20;;;;;;;21.45;58.10;98994.80;79221;1301;3013160;-69
2023/07/22 21:58:35;;;;;;;5.40;3.20;;;;;;;21.43;58.28;98993.94;79314;1301;3011691;-76
2023/07/22 22:01:04;;;;;;;5.40;3.00;;;;;;;21.43;58.32;98987.13;78053;1301;3028450;-68
2023/07/22 22:03:31;;;;;;;8.10;3.90;;;;;;;21.42;58.45;98975.27;79315;1301;3013433;-70
2023/07/22 22:05:58;;;;;;;7.50;3.00;;;;;;;21.41;58.45;98968.42;79328;1301;3011842;-70
2023/07/22 22:08:26;;;;;;;3.70;3.10;;;;;;;21.44;58.49;98961.98;78116;1298;3050021;-70
2023/07/22 22:10:52;;;;;;;9.30;3.30;;;;;;;21.44;58.48;98958.79;79318;1301;3013636;-67
2023/07/22 22:13:19;;;;;;;5.00;3.20;;;;;;;21.43;58.42;98959.72;79171;1300;3011678;-67
2023/07/22 22:15:47;;;;;;;4.40;3.20;;;;;;;21.42;58.52;98957.92;78038;1301;3024997;-64
2023/07/22 22:18:14;;;;;;;4.10;2.80;;;;;;;21.42;58.67;98959.73;79268;1301;3018868;-71
2023/07/22 22:20:41;;;;;;;7.00;3.10;;;;;;;21.39;58.78;98961.80;79246;1299;3011796;-68
2023/07/22 22:23:09;;;;;;;10.70;3.10;;;;;;;21.39;58.96;98967.48;78133;1299;3051107;-64
2023/07/22 22:25:36;;;;;;;3.30;2.80;;;;;;;21.40;58.81;98974.36;79369;1299;3012798;-67